createdAt,value
2019-03-29T00:04:13.135Z,77.82
2019-03-29T00:09:17.290Z,71.00
2019-03-29T00:14:23.368Z,79.50
2019-03-29T00:19:25.962Z,79.00
2019-03-29T00:24:37.710Z,74.70
2019-03-29T00:29:47.675Z,76.09
2019-03-29T00:34:53.395Z,78.29
2019-03-29T00:40:06.309Z,74.70
2019-03-29T00:45:13.831Z,73.00
2019-03-29T00:50:18.872Z,71.43
2019-03-29T00:55:24.488Z,74.14
2019-03-29T01:00:31.283Z,71.00
2019-03-29T01:05:41.449Z,70.10
2019-03-29T01:10:52.967Z,73.30
2019-03-29T01:16:03.755Z,74.80
2019-03-29T01:21:07.778Z,69.00
2019-03-29T01:26:19.482Z,76.71
2019-03-29T01:31:23.490Z,75.00
2019-03-29T01:36:35.196Z,78.64
2019-03-29T01:41:38.308Z,70.75
2019-03-29T01:46:43.720Z,75.14
2019-03-29T01:51:51.022Z,74.20
2019-03-29T01:57:02.671Z,74.50
2019-03-29T02:02:14.246Z,71.90
2019-03-29T02:07:19.324Z,73.29
2019-03-29T02:12:30.110Z,69.33
2019-03-29T02:17:38.399Z,72.11
2019-03-29T02:22:46.690Z,74.56
2019-03-29T02:27:58.239Z,81.30
2019-03-29T02:33:02.440Z,73.00
2019-03-29T02:38:06.163Z,71.00
2019-03-29T02:43:17.588Z,72.90
2019-03-29T02:48:29.171Z,67.20
2019-03-29T02:53:40.742Z,70.60
2019-03-29T02:58:44.650Z,66.00
2019-03-29T03:03:49.637Z,61.50
2019-03-29T03:09:13.243Z,60.78
2019-03-29T03:14:12.000Z,59.67
2019-03-29T03:19:19.442Z,58.11
2019-03-29T03:24:25.936Z,59.50
2019-03-29T03:29:36.645Z,63.00
2019-03-29T03:34:44.931Z,59.67
2019-03-29T03:39:50.217Z,64.57
2019-03-29T03:45:01.822Z,65.70
2019-03-29T03:50:08.896Z,65.25
2019-03-29T03:55:13.113Z,62.33
2019-03-29T04:00:17.779Z,62.00
2019-03-29T04:05:22.694Z,56.25
2019-03-29T04:10:30.059Z,55.89
2019-03-29T04:15:38.019Z,57.33
2019-03-29T04:20:46.083Z,59.20
2019-03-29T04:25:56.665Z,59.56
2019-03-29T04:31:06.375Z,57.78
2019-03-29T04:36:14.415Z,62.22
2019-03-29T04:41:22.376Z,56.33
2019-03-29T04:46:30.388Z,56.22
2019-03-29T04:51:37.578Z,51.22
2019-03-29T04:56:41.754Z,52.50
2019-03-29T05:01:49.747Z,52.78
2019-03-29T05:06:59.492Z,56.44
2019-03-29T05:12:07.649Z,55.63
2019-03-29T05:17:17.685Z,63.89
2019-03-29T05:22:25.750Z,64.78
2019-03-29T05:27:33.775Z,56.22
2019-03-29T05:32:43.097Z,56.11
2019-03-29T05:38:40.410Z,69.67
2019-03-29T05:43:47.040Z,61.00
2019-03-29T05:48:57.138Z,56.08
2019-03-29T05:54:05.443Z,55.30
2019-03-29T05:59:11.925Z,64.87
2019-03-29T06:04:22.491Z,63.22
2019-03-29T06:09:25.687Z,65.50
2019-03-29T06:14:29.339Z,69.00
2019-03-29T06:19:41.156Z,57.73
2019-03-29T06:24:45.988Z,53.43
2019-03-29T06:29:55.644Z,61.25
2019-03-29T06:35:06.674Z,57.33
2019-03-29T06:40:12.871Z,66.25
2019-03-29T06:45:16.687Z,64.60
2019-03-29T06:50:25.157Z,75.10
2019-03-29T06:55:30.095Z,63.83
2019-03-29T07:00:40.023Z,64.08
2019-03-29T07:05:45.244Z,60.29
2019-03-29T07:10:59.608Z,74.20
2019-03-29T07:16:09.175Z,72.86
2019-03-29T07:21:21.614Z,62.60
2019-03-29T07:26:22.851Z,68.89
2019-03-29T07:31:35.865Z,72.13
2019-03-29T07:36:40.794Z,69.17
2019-03-29T07:41:51.034Z,74.64
2019-03-29T07:47:03.595Z,64.54
2019-03-29T07:52:08.429Z,71.50
2019-03-29T07:57:11.979Z,70.67
2019-03-29T08:02:15.814Z,64.00
2019-03-29T08:07:27.463Z,64.50
2019-03-29T08:12:35.315Z,66.70
2019-03-29T08:17:40.389Z,63.50
2019-03-29T08:22:44.919Z,62.33
2019-03-29T08:27:55.658Z,68.11
2019-03-29T08:33:01.376Z,69.86
2019-03-29T08:38:06.692Z,63.14
2019-03-29T08:43:11.018Z,59.00
2019-03-29T08:48:22.402Z,60.20
2019-03-29T08:53:31.172Z,53.22
2019-03-29T08:58:34.698Z,57.00
2019-03-29T09:03:38.400Z,52.00
2019-03-29T09:08:46.371Z,59.89
2019-03-29T09:13:58.008Z,56.80
2019-03-29T09:19:02.207Z,53.00
2019-03-29T09:24:21.286Z,56.30
2019-03-29T09:29:16.146Z,51.25
2019-03-29T09:34:23.159Z,53.00
2019-03-29T09:39:30.316Z,48.00
2019-03-29T09:44:34.224Z,44.00
2019-03-29T09:49:40.146Z,42.57
2019-03-29T09:54:48.175Z,36.38
2019-03-29T09:59:55.624Z,40.00
2019-03-29T10:05:01.428Z,35.57
2019-03-29T10:10:07.091Z,39.00
2019-03-29T10:15:11.009Z,40.00
2019-03-29T10:20:18.931Z,36.00
2019-03-29T10:25:26.004Z,41.00
2019-03-29T10:30:36.795Z,36.00
2019-03-29T10:35:51.727Z,42.25
2019-03-29T10:40:50.710Z,43.50
2019-03-29T10:45:57.191Z,36.00
2019-03-29T10:51:08.182Z,38.14
2019-03-29T10:56:11.671Z,33.00
2019-03-29T11:01:15.576Z,39.00
2019-03-29T11:06:21.794Z,34.50
2019-03-29T11:11:30.106Z,40.86
2019-03-29T11:16:34.524Z,24.00
2019-03-29T11:21:38.214Z,38.75
2019-03-29T11:26:46.434Z,33.89
2019-03-29T11:31:54.308Z,36.00
2019-03-29T11:37:00.627Z,33.00
2019-03-29T11:42:10.080Z,30.00
2019-03-29T11:47:19.191Z,31.50
2019-03-29T11:52:25.603Z,40.38
2019-03-29T11:57:31.320Z,39.50
2019-03-29T12:02:38.003Z,39.63
2019-03-29T12:07:41.222Z,32.33
2019-03-29T12:12:47.775Z,38.75
2019-03-29T12:17:54.961Z,47.00
2019-03-29T12:22:58.190Z,39.33
2019-03-29T12:28:03.274Z,41.00
2019-03-29T12:33:08.769Z,42.86
2019-03-29T12:38:12.777Z,47.33
2019-03-29T12:43:22.466Z,50.91
2019-03-29T12:48:26.995Z,57.80
2019-03-29T12:53:30.139Z,60.75
2019-03-29T12:58:35.638Z,55.33
2019-03-29T13:03:45.763Z,47.89
2019-03-29T13:08:51.034Z,43.43
2019-03-29T13:14:09.929Z,44.10
2019-03-29T13:19:41.860Z,42.54
2019-03-29T13:24:46.134Z,44.00
2019-03-29T13:29:51.064Z,43.00
2019-03-29T13:34:54.571Z,45.33
2019-03-29T13:40:01.475Z,38.38
2019-03-29T13:45:08.400Z,39.75
2019-03-29T13:55:17.885Z,52.38
2019-03-29T14:00:24.017Z,38.88
2019-03-29T14:05:28.401Z,36.75
2019-03-29T14:10:35.736Z,39.86
2019-03-29T14:15:41.247Z,44.38
2019-03-29T14:20:47.833Z,46.88
2019-03-29T14:25:55.459Z,41.00
2019-03-29T14:31:02.751Z,39.00
2019-03-29T14:36:09.852Z,44.90
2019-03-29T14:41:17.912Z,41.89
2019-03-29T14:46:22.321Z,47.33
2019-03-29T14:51:29.671Z,43.50
2019-03-29T14:56:35.647Z,35.00
2019-03-29T15:01:39.926Z,40.00
2019-03-29T15:06:44.470Z,39.00
2019-03-29T15:11:48.115Z,34.00
2019-03-29T15:16:51.886Z,40.00
2019-03-29T15:21:57.808Z,36.00
2019-03-29T15:27:07.990Z,41.93
2019-03-29T15:32:47.172Z,39.59
2019-03-29T15:37:52.814Z,36.67
2019-03-29T15:42:56.980Z,40.00
2019-03-29T15:48:03.356Z,40.00
2019-03-29T15:53:12.052Z,33.75
2019-03-29T15:58:24.091Z,42.92
2019-03-29T16:03:31.992Z,43.25
2019-03-29T16:08:48.107Z,45.65
2019-03-29T16:13:56.306Z,38.60
2019-03-29T16:19:04.770Z,46.80
2019-03-29T16:24:10.936Z,41.63
2019-03-29T16:29:18.713Z,39.00
2019-03-29T16:34:27.999Z,37.88
2019-03-29T16:39:32.062Z,40.00
2019-03-29T16:44:39.813Z,34.67
2019-03-29T16:49:49.103Z,41.37
2019-03-29T16:54:56.131Z,39.78
2019-03-29T17:00:12.303Z,41.78
2019-03-29T17:05:16.091Z,40.00
2019-03-29T17:10:24.451Z,43.13
2019-03-29T17:15:27.943Z,36.33
2019-03-29T17:20:33.912Z,44.13
2019-03-29T17:25:39.611Z,42.14
2019-03-29T17:30:47.306Z,41.37
2019-03-29T17:35:53.888Z,40.88
2019-03-29T17:40:57.360Z,41.00
2019-03-29T17:46:15.206Z,41.00
2019-03-29T17:51:09.211Z,41.13
2019-03-29T17:56:13.038Z,44.00
2019-03-29T18:01:17.612Z,45.50
2019-03-29T18:06:28.546Z,46.11
2019-03-29T18:11:35.599Z,46.00
2019-03-29T18:16:40.468Z,46.00
2019-03-29T18:21:45.145Z,43.75
2019-03-29T18:26:54.390Z,46.00
2019-03-29T18:32:00.917Z,48.00
2019-03-29T18:37:08.442Z,47.67
2019-03-29T18:42:19.094Z,58.60
2019-03-29T18:47:26.332Z,50.00
2019-03-29T18:52:38.924Z,53.69
2019-03-29T18:57:48.564Z,49.92
2019-03-29T19:02:55.954Z,49.00
2019-03-29T19:08:00.043Z,59.40
2019-03-29T19:13:08.403Z,55.33
2019-03-29T19:18:15.341Z,52.33
2019-03-29T19:23:20.194Z,54.67
2019-03-29T19:28:24.307Z,56.20
2019-03-29T19:33:34.008Z,59.00
2019-03-29T19:38:38.434Z,53.00
2019-03-29T19:43:48.269Z,63.29
2019-03-29T19:48:54.922Z,79.00
2019-03-29T19:54:08.146Z,68.17
2019-03-29T19:59:23.472Z,53.41
2019-03-29T20:04:28.443Z,58.50
2019-03-29T20:09:33.361Z,67.00
2019-03-29T20:14:37.855Z,53.40
2019-03-29T20:19:44.821Z,71.33
2019-03-29T20:24:56.031Z,72.07
2019-03-29T20:30:08.164Z,59.93
2019-03-29T20:35:11.877Z,62.00
2019-03-29T20:40:18.161Z,62.38
2019-03-29T20:45:21.886Z,59.80
2019-03-29T20:50:32.770Z,68.33
2019-03-29T20:55:38.787Z,59.75
2019-03-29T21:00:53.514Z,70.21
2019-03-29T21:06:05.298Z,64.60
2019-03-29T21:11:12.212Z,61.33
2019-03-29T21:16:15.486Z,56.33
2019-03-29T21:21:19.650Z,60.00
2019-03-29T21:26:24.930Z,54.75
2019-03-29T21:31:36.398Z,61.94
2019-03-29T21:36:48.662Z,71.33
2019-03-29T21:41:57.024Z,56.64
2019-03-29T21:47:08.023Z,54.36
2019-03-29T21:52:12.434Z,57.50
2019-03-29T21:57:29.970Z,62.05
2019-03-29T22:02:45.123Z,66.47
2019-03-29T22:07:49.799Z,65.75
2019-03-29T22:13:00.308Z,57.00
2019-03-29T22:18:06.884Z,64.20
2019-03-29T22:23:15.500Z,59.10
2019-03-29T22:28:18.995Z,57.00
2019-03-29T22:33:22.256Z,62.50
2019-03-29T22:38:26.460Z,63.00
2019-03-29T22:43:31.121Z,56.20
2019-03-29T22:48:35.520Z,74.00
2019-03-29T22:53:42.742Z,57.00
2019-03-29T22:58:47.295Z,73.00
2019-03-29T23:03:52.287Z,66.00
2019-03-29T23:08:59.263Z,66.83
2019-03-29T23:14:14.366Z,62.95
2019-03-29T23:19:19.178Z,59.50
2019-03-29T23:24:27.394Z,58.80
2019-03-29T23:29:39.798Z,60.60
2019-03-29T23:34:51.248Z,60.47
2019-03-29T23:40:06.974Z,64.27
2019-03-29T23:45:20.987Z,53.50
2019-03-29T23:50:26.842Z,59.00
2019-03-29T23:55:35.641Z,57.42
